CYYF - Penticton

Pirep is a free, collaborative database of all public and private airports located within the United States. All pilots are welcome to contribute, edit, and improve any airport they have local knowledge about, no registration required.
Are you familiar with this airport? Help out other pilots by adding your local knowledge.
Uploaded photos will be licensed under a CC BY-SA 4.0 license. Please only upload photos you have the rights to use.
Tags
Public
Undocu­mented
METAR / TAF
Edit Tags
Food
Camping
Lodging
Car Rental
Bicycles
Swimming
Golfing
Fishing
Hot Springs
Museum
Flying Clubs
Airpark
Upcoming Events
No upcoming events. Is anything happening here soon?
*
*
*

Where exactly on/near the airport is this event taking place?

Is there a webpage with more information for this event?

Who should be contacted for more information?

What is this event all about?

Repeat every
Description
Transient Parking
Fuel Location
Landing & Tie-down Fees
Crew Car Availability
Flying Clubs
WiFi Access
Airport Statistics
Location: Penticton, CN
Elevation: 1,129ft
Activation date: Mar 2005
Fuel: None
Runway 16/34: 6,000ft
Access: Open to the public
Current Weather — VFR
  • Weather data is strictly informational and not for flight planning purposes.
  • METAR
    2024-05-29 10:00:00 PDT
    Ceiling Wind Temperature Dewpoint Weather Visbility
    7,700ft Calm 57°F 24°F N/A 15SM
    Clouds: Broken @ 7,700ft, Broken @ 11,000ft
    Raw: CYYF 291700Z 00000KT 15SM BKN077 BKN110 14/M04 A3011 RMK AC6AC1 SLP201
  • TAF
    2024-05-29 06:00:00 PDT – 2024-05-29 07:00:00 PDT
    Ceiling Wind Weather Visbility
    Sky clear 340° @ 6kt N/A 6SM
    Clouds: Few @ 6,000ft, Scattered @ 12,000ft
    Raw: TAF CYYF 291240Z 2913/3001 34006KT P6SM FEW060 SCT120 FM291400 34008KT P6SM BKN080 FM292100 34010KT P6SM BKN080 OVC200 TEMPO 2921/3001 P6SM -SHRA OVC060 RMK NXT FCST BY 291900Z
  • TAF
    2024-05-29 07:00:00 PDT – 2024-05-29 14:00:00 PDT
    Ceiling Wind Weather Visbility
    8,000ft 340° @ 8kt N/A 6SM
    Clouds: Broken @ 8,000ft
    Raw: TAF CYYF 291240Z 2913/3001 34006KT P6SM FEW060 SCT120 FM291400 34008KT P6SM BKN080 FM292100 34010KT P6SM BKN080 OVC200 TEMPO 2921/3001 P6SM -SHRA OVC060 RMK NXT FCST BY 291900Z
  • TAF
    2024-05-29 14:00:00 PDT – 2024-05-29 18:00:00 PDT
    Ceiling Wind Weather Visbility
    8,000ft 340° @ 10kt N/A 6SM
    Clouds: Broken @ 8,000ft, Overcast @ 20,000ft
    Raw: TAF CYYF 291240Z 2913/3001 34006KT P6SM FEW060 SCT120 FM291400 34008KT P6SM BKN080 FM292100 34010KT P6SM BKN080 OVC200 TEMPO 2921/3001 P6SM -SHRA OVC060 RMK NXT FCST BY 291900Z
  • TAF
    2024-05-29 14:00:00 PDT – 2024-05-29 18:00:00 PDT
    Ceiling Wind Weather Visbility
    6,000ft ° @ kt Light rain showers 6SM
    Clouds: Overcast @ 6,000ft
    Raw: TAF CYYF 291240Z 2913/3001 34006KT P6SM FEW060 SCT120 FM291400 34008KT P6SM BKN080 FM292100 34010KT P6SM BKN080 OVC200 TEMPO 2921/3001 P6SM -SHRA OVC060 RMK NXT FCST BY 291900Z
Click/tap to add an annotation marker to the map
Airport Webcams
No webcams added yet.
Direct links to live image URLs will be displayed inline on this page. URLs to separate webpages will be linked to.
URL:
Direct links to live image URLs will be displayed inline on this page. URLs to separate webpages will be linked to.
URL:
Comments
Leave a comment What was your experience like at this airport?